Isabel, Texas
Current Conditions -  °F | °C
As of 11:53 AM on Friday 28 Nov 2014 (Local Time) from KPIL Reporting Station
Clear Clear  
Wind Chill: 75°   Ceiling: Unl
Heat Index: 75°   Visibility: 8mi
Dew Point: 54°   Wind: 15mph
Humidity: 48%   Direction: 160°SSE
Pressure: 30.26"   Gusts: NA
Location:  26.0776°N, 97.3389°W
Report Text: KPIL 281753Z AUTO 16013KT 8SM CLR 24/12 A3026 RMK AO2 SLP246 T02390122 10239 20117 58020
Loading
Personal Weather Stations






























Interactive Weather Map New forecast layout! Learn more

10-Day Weather Forecast

Advertisements
Track Severe Weather on mobile